Time;durP1;ratioP1;P1;durP2;ratioP2;P2;SDS_P1;SDS_P2;PMS_P1;PMS_P2;Temp;Humidity;BMP_temperature;BMP_pressure;BME280_temperature;BME280_humidity;BME280_pressure;Samples;Min_cycle;Max_cycle;Signal;HPM_P1;HPM_P2
2023/09/27 00:00:10;;;;;;;;;;;;;;;29.19;34.88;101040.59;5076404;28;1115;-26
2023/09/27 00:02:39;;;;;;;;;;;;;;;29.07;35.34;101029.41;5076681;28;2538;-26
2023/09/27 00:05:06;;;;;;;;;;;;;;;29.09;35.52;101032.75;5075846;28;1064;-26
2023/09/27 00:07:33;;;;;;;;;;;;;;;29.19;35.05;101029.75;5076101;28;1914;-26
2023/09/27 00:09:58;;;;;;;;;;;;;;;29.14;34.73;101030.34;5076799;28;1111;-26
2023/09/27 00:12:24;;;;;;;;;;;;;;;29.25;34.58;101030.84;5076011;28;1046;-25
2023/09/27 00:14:49;;;;;;;;;;;;;;;29.16;34.52;101027.44;5076602;28;1050;-25
2023/09/27 00:17:15;;;;;;;;;;;;;;;29.14;35.17;101027.63;5075966;28;1036;-25
2023/09/27 00:19:41;;;;;;;;;;;;;;;29.15;34.81;101015.75;5076393;28;1043;-25
2023/09/27 00:22:09;;;;;;;;;;;;;;;29.17;34.49;101018.25;5076250;28;991;-25
2023/09/27 00:24:35;;;;;;;;;;;;;;;29.10;35.02;101020.91;5075634;28;955;-25
2023/09/27 00:27:00;;;;;;;;;;;;;;;29.17;34.81;101018.25;5075843;28;1979;-23
2023/09/27 00:29:26;;;;;;;;;;;;;;;29.08;35.03;101003.97;5075160;28;848;-23
2023/09/27 00:31:51;;;;;;;;;;;;;;;29.18;34.81;101009.94;5076150;28;2405;-23
2023/09/27 00:34:17;;;;;;;;;;;;;;;29.19;34.79;101008.94;5076078;28;1058;-23
2023/09/27 00:36:42;;;;;;;;;;;;;;;29.21;34.89;101006.03;5058268;28;1302;-23
2023/09/27 00:39:08;;;;;;;;;;;;;;;29.18;34.96;101009.94;5057485;28;1038;-23
2023/09/27 00:41:33;;;;;;;;;;;;;;;29.21;34.88;101006.84;5056504;28;1119;-25
2023/09/27 00:43:59;;;;;;;;;;;;;;;29.23;34.77;101008.53;5063341;28;1055;-22
2023/09/27 00:46:24;;;;;;;;;;;;;;;29.17;34.75;101016.41;5075495;28;1914;-23
2023/09/27 00:48:50;;;;;;;;;;;;;;;29.26;34.85;101019.81;5075719;28;1040;-22
2023/09/27 00:51:15;;;;;;;;;;;;;;;29.25;34.73;101020.00;5057838;28;1055;-23
2023/09/27 00:53:41;;;;;;;;;;;;;;;29.25;35.10;101015.44;5057696;28;854;-22
2023/09/27 00:56:07;;;;;;;;;;;;;;;29.23;35.31;101020.19;5056569;28;1111;-22
2023/09/27 00:58:34;;;;;;;;;;;;;;;29.24;35.01;101016.47;5045266;28;1126;-23
2023/09/27 01:00:59;;;;;;;;;;;;;;;29.26;34.81;101010.88;5045988;28;2050;-22
2023/09/27 01:03:25;;;;;;;;;;;;;;;29.27;35.12;101007.97;5075703;28;1127;-22
2023/09/27 01:05:50;;;;;;;;;;;;;;;29.24;35.09;101010.22;5075439;28;1128;-22
2023/09/27 01:08:16;;;;;;;;;;;;;;;29.24;35.04;101005.66;5075628;28;1981;-23
2023/09/27 01:10:42;;;;;;;;;;;;;;;29.21;35.43;101004.13;5075382;28;1186;-23
2023/09/27 01:13:08;;;;;;;;;;;;;;;29.19;35.30;101000.81;5040738;28;1031;-23
2023/09/27 01:15:33;;;;;;;;;;;;;;;29.19;35.35;100995.38;5057727;28;1202;-22
2023/09/27 01:17:59;;;;;;;;;;;;;;;29.24;35.59;101002.94;5075259;28;1045;-24
2023/09/27 01:20:25;;;;;;;;;;;;;;;29.24;35.44;101000.22;5057107;28;1110;-22
2023/09/27 01:23:00;;;;;;;;;;;;;;;29.23;35.25;101001.22;5075227;28;1089;-23
2023/09/27 01:25:29;;;;;;;;;;;;;;;29.21;35.76;100985.19;5075461;28;1058;-22
2023/09/27 01:28:00;;;;;;;;;;;;;;;29.20;35.62;100982.66;5075617;28;1972;-22
2023/09/27 01:30:32;;;;;;;;;;;;;;;29.20;35.73;100988.94;5056948;28;1111;-22
2023/09/27 01:33:00;;;;;;;;;;;;;;;29.21;35.92;100989.78;5075528;28;2332;-22
2023/09/27 01:35:27;;;;;;;;;;;;;;;29.26;36.03;100990.00;5075401;28;1137;-22
2023/09/27 01:37:52;;;;;;;;;;;;;;;29.26;36.24;100986.47;5075281;28;1119;-23
2023/09/27 01:40:22;;;;;;;;;;;;;;;29.21;36.19;100987.88;5057141;28;1230;-23
2023/09/27 01:42:47;;;;;;;;;;;;;;;29.23;36.71;100993.09;5057229;28;1532;-22
2023/09/27 01:45:13;;;;;;;;;;;;;;;29.24;36.77;100991.25;5075463;28;1133;-23
2023/09/27 01:47:39;;;;;;;;;;;;;;;29.24;36.82;100992.09;5057109;28;1984;-22
2023/09/27 01:50:07;;;;;;;;;;;;;;;29.22;36.85;100983.31;5061658;28;1106;-22
2023/09/27 01:52:32;;;;;;;;;;;;;;;29.24;36.62;100991.25;5066746;28;996;-23
2023/09/27 01:54:58;;;;;;;;;;;;;;;29.23;36.54;100987.69;5074580;28;1087;-23
2023/09/27 01:57:23;;;;;;;;;;;;;;;29.21;36.92;100987.88;5068031;28;1024;-23
2023/09/27 01:59:49;;;;;;;;;;;;;;;29.19;36.55;100992.69;5045238;28;1202;-22
2023/09/27 02:02:14;;;;;;;;;;;;;;;29.24;36.33;100983.97;5050122;28;2569;-23
2023/09/27 02:04:40;;;;;;;;;;;;;;;29.22;36.84;100996.88;5076610;28;1199;-22
2023/09/27 02:07:05;;;;;;;;;;;;;;;29.21;37.30;100987.88;5067501;28;1968;-22
2023/09/27 02:09:31;;;;;;;;;;;;;;;29.23;37.04;100984.16;5071909;28;1020;-22
2023/09/27 02:11:56;;;;;;;;;;;;;;;29.24;36.71;100985.84;5040752;28;1322;-22
2023/09/27 02:14:22;;;;;;;;;;;;;;;29.19;37.05;100984.56;5058179;28;1210;-23
2023/09/27 02:16:47;;;;;;;;;;;;;;;29.20;37.01;100975.38;5079007;28;1051;-22
2023/09/27 02:19:13;;;;;;;;;;;;;;;29.21;36.66;100979.75;5076863;28;1114;-22
2023/09/27 02:21:39;;;;;;;;;;;;;;;29.21;36.73;100978.94;5078636;28;1048;-23
2023/09/27 02:24:05;;;;;;;;;;;;;;;29.20;37.38;100985.38;5078280;28;1076;-23
2023/09/27 02:26:31;;;;;;;;;;;;;;;29.23;37.25;100981.47;5078588;28;1902;-24
2023/09/27 02:28:56;;;;;;;;;;;;;;;29.21;37.39;100984.34;5060460;28;1137;-24
2023/09/27 02:31:21;;;;;;;;;;;;;;;29.24;37.14;100988.53;5078489;28;2456;-23
2023/09/27 02:33:47;;;;;;;;;;;;;;;29.24;37.26;100988.53;5059683;28;1074;-23
2023/09/27 02:36:13;;;;;;;;;;;;;;;29.24;37.59;100991.25;5078546;28;1210;-24
2023/09/27 02:38:38;;;;;;;;;;;;;;;29.24;36.98;100991.25;5077842;28;1151;-24
2023/09/27 02:41:04;;;;;;;;;;;;;;;29.19;37.19;100987.25;5078015;28;1039;-23
2023/09/27 02:43:29;;;;;;;;;;;;;;;29.19;37.26;100987.25;5078131;28;1147;-22
2023/09/27 02:45:55;;;;;;;;;;;;;;;29.23;37.43;100986.88;5078468;28;1031;-22
2023/09/27 02:48:20;;;;;;;;;;;;;;;29.23;37.49;100990.41;5078193;28;1999;-22
2023/09/27 02:50:50;;;;;;;;;;;;;;;29.24;37.64;100991.25;5060229;28;1178;-22
2023/09/27 02:53:16;;;;;;;;;;;;;;;29.21;37.57;100995.19;5077796;28;1087;-22
2023/09/27 02:55:42;;;;;;;;;;;;;;;29.22;37.31;100988.72;5059103;28;907;-22
2023/09/27 02:58:07;;;;;;;;;;;;;;;29.20;37.72;100990.78;5077940;28;1179;-22
2023/09/27 03:00:33;;;;;;;;;;;;;;;29.22;38.03;100996.88;5059268;28;1094;-22
2023/09/27 03:03:01;;;;;;;;;;;;;;;29.20;37.83;100997.06;5076414;28;3052;-22
2023/09/27 03:05:26;;;;;;;;;;;;;;;29.24;37.76;100991.25;5077833;28;1048;-22
2023/09/27 03:07:52;;;;;;;;;;;;;;;29.24;38.17;100993.97;5059349;28;1913;-22
2023/09/27 03:10:18;;;;;;;;;;;;;;;29.23;38.19;100992.28;5049181;28;1126;-23
2023/09/27 03:12:46;;;;;;;;;;;;;;;29.21;38.02;100987.88;5075105;28;1213;-22
2023/09/27 03:15:11;;;;;;;;;;;;;;;29.23;38.14;100993.09;5067141;28;1059;-23
2023/09/27 03:17:38;;;;;;;;;;;;;;;29.18;36.47;100987.41;5056888;28;1253;-22
2023/09/27 03:20:07;;;;;;;;;;;;;;;29.19;37.16;100991.84;5048818;28;1329;-23
2023/09/27 03:22:33;;;;;;;;;;;;;;;29.19;36.76;100995.38;5056889;28;1414;-22
2023/09/27 03:24:59;;;;;;;;;;;;;;;29.14;36.82;100997.81;5059554;28;1206;-23
2023/09/27 03:27:25;;;;;;;;;;;;;;;29.16;37.06;100994.94;5072859;28;1910;-22
2023/09/27 03:29:51;;;;;;;;;;;;;;;29.15;37.06;100990.53;5050173;28;1028;-24
2023/09/27 03:32:17;;;;;;;;;;;;;;;29.16;36.79;100994.94;5059345;28;2268;-22
2023/09/27 03:34:42;;;;;;;;;;;;;;;29.13;37.02;100998.84;5058874;28;1572;-24
2023/09/27 03:37:08;;;;;;;;;;;;;;;29.17;37.04;101000.16;5045958;28;1162;-24
2023/09/27 03:39:35;;;;;;;;;;;;;;;29.09;36.98;100994.84;5059171;28;1155;-23
2023/09/27 03:42:02;;;;;;;;;;;;;;;29.25;38.38;100995.63;5077051;28;1165;-24
2023/09/27 03:44:29;;;;;;;;;;;;;;;29.23;38.38;100998.53;5059181;28;1230;-23
2023/09/27 03:46:54;;;;;;;;;;;;;;;29.33;38.96;100995.50;5058811;28;1964;-24
2023/09/27 03:49:21;;;;;;;;;;;;;;;28.99;40.01;101008.69;5065189;28;1141;-25
2023/09/27 03:51:46;;;;;;;;;;;;;;;28.97;40.07;101008.03;5057473;28;1106;-25
2023/09/27 03:54:12;;;;;;;;;;;;;;;28.70;39.88;101007.66;5058318;28;1075;-27
2023/09/27 03:56:38;;;;;;;;;;;;;;;28.85;39.89;101000.38;5076435;28;1036;-25
2023/09/27 03:59:03;;;;;;;;;;;;;;;28.73;40.75;100999.16;5058695;28;1260;-25
2023/09/27 04:01:29;;;;;;;;;;;;;;;27.87;42.04;100996.63;5070736;28;2461;-25
2023/09/27 04:03:58;;;;;;;;;;;;;;;28.08;41.45;100989.69;5038447;28;1266;-26
2023/09/27 04:06:24;;;;;;;;;;;;;;;27.00;43.17;100996.66;5057696;28;1909;-26
2023/09/27 04:08:51;;;;;;;;;;;;;;;26.81;44.03;100999.78;5076597;28;1082;-26
2023/09/27 04:11:16;;;;;;;;;;;;;;;25.60;47.16;100998.50;5076370;28;1090;-27
2023/09/27 04:13:42;;;;;;;;;;;;;;;25.68;47.08;101009.34;5075417;28;1165;-26
2023/09/27 04:16:08;;;;;;;;;;;;;;;26.74;44.82;101002.31;5075430;28;971;-25
2023/09/27 04:18:33;;;;;;;;;;;;;;;27.20;43.43;101006.19;5075586;28;1011;-25
2023/09/27 04:21:06;;;;;;;;;;;;;;;27.42;43.02;101014.50;5065226;28;1003;-26
2023/09/27 04:23:33;;;;;;;;;;;;;;;27.22;43.92;101010.41;5076448;28;1078;-26
2023/09/27 04:25:59;;;;;;;;;;;;;;;27.18;43.97;101014.47;5076169;28;1091;-24
2023/09/27 04:28:24;;;;;;;;;;;;;;;27.28;43.97;101019.63;5076511;28;1977;-26
2023/09/27 04:30:50;;;;;;;;;;;;;;;27.37;43.58;101026.69;5075679;28;1990;-24
2023/09/27 04:33:16;;;;;;;;;;;;;;;27.75;42.81;101008.88;5075675;28;1102;-26
2023/09/27 04:35:42;;;;;;;;;;;;;;;27.63;43.23;101001.19;5076466;28;1054;-25
2023/09/27 04:38:09;;;;;;;;;;;;;;;27.47;43.48;101007.56;5076445;28;1069;-26
2023/09/27 04:40:35;;;;;;;;;;;;;;;27.88;41.68;101002.88;5076023;28;1054;-25
2023/09/27 04:43:00;;;;;;;;;;;;;;;28.14;40.85;101009.75;5076243;28;987;-25
2023/09/27 04:45:26;;;;;;;;;;;;;;;28.28;40.82;101009.97;5076179;28;1008;-25
2023/09/27 04:47:52;;;;;;;;;;;;;;;28.51;39.84;101015.31;5075675;28;1981;-24
2023/09/27 04:50:17;;;;;;;;;;;;;;;28.44;40.10;101015.22;5076050;28;1084;-24
2023/09/27 04:52:43;;;;;;;;;;;;;;;28.50;39.88;101016.34;5076274;28;1016;-25
2023/09/27 04:55:08;;;;;;;;;;;;;;;28.67;38.93;101017.00;5075845;28;983;-25
2023/09/27 04:57:34;;;;;;;;;;;;;;;28.64;38.91;101019.25;5076093;28;1073;-25
2023/09/27 05:00:00;;;;;;;;;;;;;;;28.66;39.46;101012.59;5076021;28;1167;-26
2023/09/27 05:02:27;;;;;;;;;;;;;;;28.82;38.42;101016.16;5074825;28;1630;-26
2023/09/27 05:04:52;;;;;;;;;;;;;;;28.77;38.56;101021.28;5076398;28;1166;-26
2023/09/27 05:07:19;;;;;;;;;;;;;;;28.80;38.63;101024.47;5075906;28;2043;-25
2023/09/27 05:09:44;;;;;;;;;;;;;;;28.84;38.46;101020.31;5076177;28;1198;-24
2023/09/27 05:12:10;;;;;;;;;;;;;;;28.85;39.09;101026.59;5076153;28;1002;-24
2023/09/27 05:14:35;;;;;;;;;;;;;;;28.95;38.83;101027.16;5076191;28;1060;-24
2023/09/27 05:17:01;;;;;;;;;;;;;;;28.98;38.99;101025.94;5075552;28;1031;-23
2023/09/27 05:19:26;;;;;;;;;;;;;;;28.92;38.84;101030.25;5075941;28;1071;-24
2023/09/27 05:21:52;;;;;;;;;;;;;;;29.03;38.79;101020.81;5076521;28;1127;-25
2023/09/27 05:24:17;;;;;;;;;;;;;;;29.00;38.44;101023.91;5075628;28;1059;-24
2023/09/27 05:26:43;;;;;;;;;;;;;;;28.87;39.71;101029.13;5079151;28;1976;-26
2023/09/27 05:29:13;;;;;;;;;;;;;;;28.86;38.86;101025.59;5079907;28;1148;-24
2023/09/27 05:31:42;;;;;;;;;;;;;;;28.90;38.28;101018.75;5079241;28;1051;-24
2023/09/27 05:34:08;;;;;;;;;;;;;;;29.17;37.97;101018.25;5079982;28;1090;-24
2023/09/27 05:36:34;;;;;;;;;;;;;;;29.13;38.47;101020.50;5079906;28;1031;-26
2023/09/27 05:39:00;;;;;;;;;;;;;;;28.96;37.84;101012.56;5080088;28;1063;-26
2023/09/27 05:41:25;;;;;;;;;;;;;;;29.32;37.35;101010.09;5080537;28;1012;-25
2023/09/27 05:43:51;;;;;;;;;;;;;;;28.95;39.23;101020.88;5080005;28;1309;-25
2023/09/27 05:46:16;;;;;;;;;;;;;;;28.84;39.52;101017.63;5079903;28;1308;-24
2023/09/27 05:48:42;;;;;;;;;;;;;;;28.87;39.15;101026.41;5079799;28;1906;-24
2023/09/27 05:51:07;;;;;;;;;;;;;;;29.31;38.74;101021.97;5080203;28;1163;-24
2023/09/27 05:53:33;;;;;;;;;;;;;;;29.34;38.05;101024.31;5079480;28;1163;-24
2023/09/27 05:56:03;;;;;;;;;;;;;;;29.42;38.07;101026.03;5079338;28;1050;-23
2023/09/27 05:58:29;;;;;;;;;;;;;;;29.11;37.60;101024.44;5079415;28;1067;-24
2023/09/27 06:00:55;;;;;;;;;;;;;;;28.99;38.54;101027.66;5079272;28;1098;-25
2023/09/27 06:03:20;;;;;;;;;;;;;;;29.11;38.69;101028.00;5079088;28;1336;-24
2023/09/27 06:05:46;;;;;;;;;;;;;;;29.31;37.99;101030.09;5078655;28;1324;-25
2023/09/27 06:08:12;;;;;;;;;;;;;;;29.13;38.05;101027.81;5070837;28;1973;-26
2023/09/27 06:10:38;;;;;;;;;;;;;;;29.00;39.13;101037.44;5079540;28;1038;-25
2023/09/27 06:13:05;;;;;;;;;;;;;;;29.21;37.16;101027.69;5065968;28;1100;-25
2023/09/27 06:15:32;;;;;;;;;;;;;;;28.98;38.81;101034.06;5078855;28;1135;-26
2023/09/27 06:17:58;;;;;;;;;;;;;;;29.00;37.45;101028.47;5078970;28;1113;-26
2023/09/27 06:20:29;;;;;;;;;;;;;;;28.95;37.56;101032.56;5078892;28;944;-25
2023/09/27 06:22:57;;;;;;;;;;;;;;;29.30;38.41;101031.97;5078726;28;1441;-24
2023/09/27 06:25:29;;;;;;;;;;;;;;;28.19;35.85;101020.88;5068153;28;1333;-25
2023/09/27 06:27:54;;;;;;;;;;;;;;;27.64;35.24;101023.66;5078854;28;1901;-24
2023/09/27 06:30:20;;;;;;;;;;;;;;;28.60;35.33;101018.75;5078828;28;1404;-25
2023/09/27 06:32:46;;;;;;;;;;;;;;;28.14;33.98;101023.28;5078524;28;848;-25
2023/09/27 06:35:14;;;;;;;;;;;;;;;27.65;33.74;101022.63;5065966;28;1498;-24
2023/09/27 06:37:40;;;;;;;;;;;;;;;27.47;33.86;101025.63;5065185;28;946;-25
2023/09/27 06:40:09;;;;;;;;;;;;;;;26.61;33.11;101022.59;5075161;28;1027;-25
2023/09/27 06:42:35;;;;;;;;;;;;;;;27.70;32.65;101019.41;5078489;28;1063;-27
2023/09/27 06:45:01;;;;;;;;;;;;;;;26.69;32.73;101027.13;5077901;28;1030;-25
2023/09/27 06:47:31;;;;;;;;;;;;;;;26.55;32.42;101033.22;5078434;28;1887;-26
2023/09/27 06:49:56;;;;;;;;;;;;;;;26.36;32.65;101036.13;5078869;28;1139;-26
2023/09/27 06:52:22;;;;;;;;;;;;;;;26.37;32.34;101037.84;5078179;28;1206;-26
2023/09/27 06:54:48;;;;;;;;;;;;;;;27.57;31.59;101036.19;5078697;28;1195;-25
2023/09/27 06:57:13;;;;;;;;;;;;;;;28.01;31.89;101037.41;5078323;28;897;-24
2023/09/27 06:59:39;;;;;;;;;;;;;;;28.53;31.67;101029.50;5078069;28;1108;-25
2023/09/27 07:02:05;;;;;;;;;;;;;;;28.70;32.68;101034.72;5077986;28;1051;-24
2023/09/27 07:04:30;;;;;;;;;;;;;;;28.66;32.88;101036.97;5074891;28;1167;-24
2023/09/27 07:06:57;;;;;;;;;;;;;;;28.54;32.83;101041.16;5069249;28;1902;-23
2023/09/27 07:09:22;;;;;;;;;;;;;;;28.31;31.16;101050.16;5077402;28;1182;-24
2023/09/27 07:11:48;;;;;;;;;;;;;;;28.67;31.57;101044.06;5069056;28;1099;-26
2023/09/27 07:14:15;;;;;;;;;;;;;;;28.84;32.43;101044.69;5063781;28;1153;-23
2023/09/27 07:16:41;;;;;;;;;;;;;;;29.01;32.79;101046.41;5078102;28;1125;-25
2023/09/27 07:19:07;;;;;;;;;;;;;;;29.02;35.04;101043.53;5065295;28;1070;-25
2023/09/27 07:21:32;;;;;;;;;;;;;;;28.99;35.75;101048.47;5077416;28;1151;-26
2023/09/27 07:23:58;;;;;;;;;;;;;;;28.94;34.98;101044.44;5077429;28;1127;-24
2023/09/27 07:26:23;;;;;;;;;;;;;;;29.16;34.81;101044.50;5078080;28;1036;-25
2023/09/27 07:28:50;;;;;;;;;;;;;;;29.28;35.97;101039.44;5077789;28;1914;-25
2023/09/27 07:31:16;;;;;;;;;;;;;;;29.50;35.04;101052.16;5077473;28;1100;-25
2023/09/27 07:33:45;;;;;;;;;;;;;;;29.33;37.50;101047.84;5070679;28;1129;-24
2023/09/27 07:36:11;;;;;;;;;;;;;;;29.38;35.98;101043.72;5063964;28;1043;-25
2023/09/27 07:38:39;;;;;;;;;;;;;;;29.64;36.01;101053.19;5076982;28;1191;-24
2023/09/27 07:41:04;;;;;;;;;;;;;;;29.52;36.58;101050.13;5075023;28;1163;-26
2023/09/27 07:43:30;;;;;;;;;;;;;;;29.60;35.93;101051.88;5068716;28;1318;-24
2023/09/27 07:45:55;;;;;;;;;;;;;;;29.55;34.84;101047.00;5064098;28;1016;-23
2023/09/27 07:48:21;;;;;;;;;;;;;;;29.68;35.45;101049.91;5058085;28;1913;-23
2023/09/27 07:50:47;;;;;;;;;;;;;;;29.69;35.26;101050.75;5064577;28;1138;-25
2023/09/27 07:53:13;;;;;;;;;;;;;;;29.62;35.83;101047.97;5077044;28;1125;-25
2023/09/27 07:55:46;;;;;;;;;;;;;;;29.91;34.82;101051.56;5076631;28;1166;-25
2023/09/27 07:58:12;;;;;;;;;;;;;;;30.01;34.62;101048.50;5076385;28;1043;-25
2023/09/27 08:00:40;;;;;;;;;;;;;;;29.91;35.40;101056.97;5076307;28;1109;-24
2023/09/27 08:03:07;;;;;;;;;;;;;;;30.05;34.17;101038.97;5077299;28;1125;-25
2023/09/27 08:05:33;;;;;;;;;;;;;;;30.02;34.76;101046.66;5073762;28;1131;-24
2023/09/27 08:07:59;;;;;;;;;;;;;;;29.94;35.72;101051.19;5073400;28;1901;-26
2023/09/27 08:10:25;;;;;;;;;;;;;;;30.12;35.70;101049.88;5076962;28;1111;-25
2023/09/27 08:12:50;;;;;;;;;;;;;;;30.16;35.25;101058.47;5076713;28;1100;-26
2023/09/27 08:15:17;;;;;;;;;;;;;;;30.13;35.26;101061.56;5077257;28;1115;-26
2023/09/27 08:17:43;;;;;;;;;;;;;;;30.15;36.33;101063.03;5067334;28;1158;-26
2023/09/27 08:20:11;;;;;;;;;;;;;;;30.25;35.77;101040.16;5076390;28;1173;-25
2023/09/27 08:22:39;;;;;;;;;;;;;;;30.12;35.13;101044.44;5073043;28;1169;-23
2023/09/27 08:25:09;;;;;;;;;;;;;;;29.68;35.33;101036.34;5065520;28;1208;-24
2023/09/27 08:27:34;;;;;;;;;;;;;;;29.63;35.28;101049.63;5076519;28;1910;-24
2023/09/27 08:30:00;;;;;;;;;;;;;;;29.63;34.61;101048.81;5071321;28;1473;-24
2023/09/27 08:32:26;;;;;;;;;;;;;;;29.72;34.72;101052.22;5076465;28;1079;-23
2023/09/27 08:34:51;;;;;;;;;;;;;;;29.56;35.41;101046.81;5076483;28;1062;-24
2023/09/27 08:37:17;;;;;;;;;;;;;;;29.64;35.52;101048.63;5076866;28;1042;-23
2023/09/27 08:39:43;;;;;;;;;;;;;;;29.40;35.57;101057.91;5076725;28;1075;-23
2023/09/27 08:42:09;;;;;;;;;;;;;;;29.43;36.59;101052.94;5076395;28;1064;-23
2023/09/27 08:44:34;;;;;;;;;;;;;;;29.44;35.52;101049.22;5069570;28;1189;-24
2023/09/27 08:47:00;;;;;;;;;;;;;;;29.51;36.26;101060.09;5058622;28;1969;-24
2023/09/27 08:49:25;;;;;;;;;;;;;;;29.59;34.38;101053.78;5058457;28;1102;-24
2023/09/27 08:51:51;;;;;;;;;;;;;;;29.65;34.74;101052.16;5067805;28;1216;-24
2023/09/27 08:54:19;;;;;;;;;;;;;;;29.50;36.21;101074.69;5071205;28;1225;-24
2023/09/27 08:56:48;;;;;;;;;;;;;;;29.41;36.38;101073.97;5057753;28;1470;-24
2023/09/27 08:59:13;;;;;;;;;;;;;;;29.44;36.51;101076.31;5063000;28;1475;-23
2023/09/27 09:01:39;;;;;;;;;;;;;;;29.78;35.34;101065.03;5074267;28;1435;-23
2023/09/27 09:04:04;;;;;;;;;;;;;;;29.78;35.30;101065.84;5074424;28;1403;-23
2023/09/27 09:06:30;;;;;;;;;;;;;;;29.87;36.14;101077.41;5075772;28;1906;-24
2023/09/27 09:08:56;;;;;;;;;;;;;;;29.73;37.05;101078.31;5074962;28;1159;-24
2023/09/27 09:11:22;;;;;;;;;;;;;;;29.78;36.54;101078.59;5075579;28;1091;-23
2023/09/27 09:13:57;;;;;;;;;;;;;;;29.73;37.18;101078.31;5075664;28;1081;-23
2023/09/27 09:16:23;;;;;;;;;;;;;;;29.63;36.52;101076.75;5063284;28;1293;-24
2023/09/27 09:18:54;;;;;;;;;;;;;;;29.63;37.31;101075.91;5076111;28;1154;-25
2023/09/27 09:21:20;;;;;;;;;;;;;;;29.74;35.77;101086.25;5075819;28;1127;-24
2023/09/27 09:23:49;;;;;;;;;;;;;;;29.51;35.04;101081.78;5075811;28;1059;-24
2023/09/27 09:26:28;;;;;;;;;;;;;;;29.63;36.04;101079.44;5076505;28;1155;-25
2023/09/27 09:28:59;;;;;;;;;;;;;;;29.67;37.14;101078.06;5075867;28;1909;-25
2023/09/27 09:31:28;;;;;;;;;;;;;;;30.04;36.63;101077.13;5064883;28;1134;-25
2023/09/27 09:34:06;;;;;;;;;;;;;;;29.91;37.15;101070.53;5073461;28;1218;-25
2023/09/27 09:36:32;;;;;;;;;;;;;;;29.90;36.82;101068.88;5075537;28;1050;-25
2023/09/27 09:39:09;;;;;;;;;;;;;;;30.00;36.75;101063.13;5075970;28;1127;-25
2023/09/27 09:41:44;;;;;;;;;;;;;;;29.97;37.15;101077.06;5076001;28;1067;-26
2023/09/27 09:44:22;;;;;;;;;;;;;;;30.07;36.90;101074.03;5075698;28;1035;-25
2023/09/27 09:46:48;;;;;;;;;;;;;;;30.18;36.53;101069.94;5075650;28;1973;-25
2023/09/27 09:49:15;;;;;;;;;;;;;;;30.23;36.07;101077.53;5076193;28;1242;-23
2023/09/27 09:51:41;;;;;;;;;;;;;;;30.18;35.91;101081.63;5070791;28;1386;-25
2023/09/27 09:54:07;;;;;;;;;;;;;;;30.32;35.82;101073.63;5062201;28;1055;-26
2023/09/27 09:56:35;;;;;;;;;;;;;;;30.34;36.48;101076.16;5075723;28;1159;-24
2023/09/27 09:59:03;;;;;;;;;;;;;;;23.83;47.41;101056.88;5061740;28;1020;-24
2023/09/27 10:01:31;;;;;;;;;;;;;;;21.21;51.03;101060.41;5075319;28;1343;-26
2023/09/27 10:03:59;;;;;;;;;;;;;;;21.68;54.66;101051.81;5057777;28;1106;-25
2023/09/27 10:06:24;;;;;;;;;;;;;;;21.85;55.78;101068.19;5057904;28;1380;-26
2023/09/27 10:08:49;;;;;;;;;;;;;;;21.74;57.01;101056.59;5057706;28;1910;-26
2023/09/27 10:11:15;;;;;;;;;;;;;;;21.69;57.79;101060.69;5057161;28;941;-26
2023/09/27 10:13:41;;;;;;;;;;;;;;;21.63;58.41;101051.38;5060284;28;1308;-26
2023/09/27 10:16:08;;;;;;;;;;;;;;;25.13;48.10;101055.47;5078700;28;1379;-26
2023/09/27 10:18:37;;;;;;;;;;;;;;;27.42;41.96;101058.56;5061992;28;1159;-26
2023/09/27 10:21:03;;;;;;;;;;;;;;;28.31;39.69;101061.00;5070864;28;1105;-27
2023/09/27 10:23:46;;;;;;;;;;;;;;;28.82;38.96;101046.78;5079805;28;1136;-27
2023/09/27 10:26:27;;;;;;;;;;;;;;;29.18;38.44;101060.56;5078799;28;1128;-26
2023/09/27 10:28:59;;;;;;;;;;;;;;;29.20;38.53;101042.25;5078574;28;1910;-26
2023/09/27 10:31:24;;;;;;;;;;;;;;;29.32;38.38;101061.56;5073003;28;1110;-26
2023/09/27 10:33:49;;;;;;;;;;;;;;;29.45;38.58;101060.88;5079115;28;1162;-26
2023/09/27 10:36:16;;;;;;;;;;;;;;;29.54;38.83;101051.63;5078393;28;1145;-25
2023/09/27 10:38:42;;;;;;;;;;;;;;;29.82;38.29;101056.31;5078725;28;1131;-24
2023/09/27 10:41:08;;;;;;;;;;;;;;;29.91;38.19;101056.97;5068503;28;1123;-26
2023/09/27 10:43:38;;;;;;;;;;;;;;;29.82;38.65;101061.72;5063316;28;1122;-25
2023/09/27 10:46:04;;;;;;;;;;;;;;;29.72;38.91;101058.50;5071237;28;1293;-24
2023/09/27 10:48:30;;;;;;;;;;;;;;;30.03;38.32;101051.88;5067200;28;1992;-24
2023/09/27 10:50:56;;;;;;;;;;;;;;;29.23;40.64;101057.31;5071534;28;1309;-25
2023/09/27 10:53:25;;;;;;;;;;;;;;;23.76;49.05;101042.34;5073939;28;1305;-25
2023/09/27 10:55:50;;;;;;;;;;;;;;;22.45;52.98;101048.44;5074971;28;1070;-25
2023/09/27 10:58:17;;;;;;;;;;;;;;;22.41;53.65;101048.84;5067599;28;1313;-27
2023/09/27 11:00:55;;;;;;;;;;;;;;;22.20;54.04;101052.56;5076326;28;1034;-26
2023/09/27 11:03:21;;;;;;;;;;;;;;;21.95;54.40;101041.41;5077076;28;1007;-25
2023/09/27 11:05:47;;;;;;;;;;;;;;;21.87;54.34;101051.00;5076814;28;1102;-28
2023/09/27 11:08:25;;;;;;;;;;;;;;;21.70;54.64;101043.63;5078288;28;1945;-26
2023/09/27 11:10:52;;;;;;;;;;;;;;;21.71;55.07;101051.53;5078041;28;1227;-28
2023/09/27 11:13:18;;;;;;;;;;;;;;;21.73;55.20;101054.06;5077644;28;1086;-27
2023/09/27 11:15:44;;;;;;;;;;;;;;;21.82;55.35;101037.16;5078388;28;1158;-26
2023/09/27 11:18:12;;;;;;;;;;;;;;;22.59;59.44;101041.75;5069764;28;1083;-26
2023/09/27 11:20:40;;;;;;;;;;;;;;;26.50;44.78;101037.28;5073473;28;1120;-26
2023/09/27 11:23:06;;;;;;;;;;;;;;;22.65;52.27;101040.38;5080373;28;2163;-27
2023/09/27 11:25:32;;;;;;;;;;;;;;;21.67;54.39;101035.88;5075866;28;1901;-25
2023/09/27 11:27:58;;;;;;;;;;;;;;;21.53;55.38;101036.16;5077160;28;1975;-27
2023/09/27 11:30:25;;;;;;;;;;;;;;;21.54;55.66;101028.94;5073675;28;2157;-26
2023/09/27 11:32:51;;;;;;;;;;;;;;;21.55;55.40;101027.97;5077172;28;2148;-26
2023/09/27 11:35:20;;;;;;;;;;;;;;;21.50;56.14;101033.72;5077141;28;1915;-26
2023/09/27 11:37:45;;;;;;;;;;;;;;;21.46;56.38;101028.78;5076679;28;2227;-28
2023/09/27 11:40:11;;;;;;;;;;;;;;;24.93;49.21;101031.50;5077411;28;1130;-26
2023/09/27 11:42:37;;;;;;;;;;;;;;;23.58;49.70;101043.19;5076985;28;1066;-26
2023/09/27 11:45:08;;;;;;;;;;;;;;;21.95;54.18;101042.28;5077149;28;1039;-26
2023/09/27 11:47:46;;;;;;;;;;;;;;;25.96;44.83;101029.75;5076961;28;1901;-25
2023/09/27 11:50:13;;;;;;;;;;;;;;;27.61;41.41;101030.25;5077064;28;1072;-25
2023/09/27 11:52:39;;;;;;;;;;;;;;;28.41;39.99;101041.81;5077155;28;1000;-25
2023/09/27 11:55:06;;;;;;;;;;;;;;;28.91;39.16;101044.78;5077047;28;1171;-26
2023/09/27 11:57:31;;;;;;;;;;;;;;;29.25;38.63;101039.81;5076704;28;1082;-25
2023/09/27 11:59:57;;;;;;;;;;;;;;;29.17;38.70;101040.78;5076689;28;1222;-26
2023/09/27 12:02:22;;;;;;;;;;;;;;;29.27;37.81;101040.47;5076187;28;1078;-26
2023/09/27 12:04:48;;;;;;;;;;;;;;;29.68;37.95;101032.78;5076478;28;1174;-25
2023/09/27 12:07:13;;;;;;;;;;;;;;;29.62;37.64;101014.59;5076101;28;1931;-26
2023/09/27 12:09:39;;;;;;;;;;;;;;;29.84;37.41;101041.69;5062443;28;1278;-26
2023/09/27 12:12:04;;;;;;;;;;;;;;;29.93;37.17;101029.66;5058704;28;1256;-26
2023/09/27 12:14:30;;;;;;;;;;;;;;;30.14;37.32;101034.25;5057070;28;1517;-26
2023/09/27 12:16:55;;;;;;;;;;;;;;;30.20;37.11;101027.19;5063366;28;1390;-26
2023/09/27 12:19:21;;;;;;;;;;;;;;;30.24;36.03;101031.22;5076297;28;1445;-26
2023/09/27 12:21:46;;;;;;;;;;;;;;;30.25;36.11;101015.75;5076782;28;1183;-26
2023/09/27 12:24:12;;;;;;;;;;;;;;;30.34;36.30;101021.88;5076306;28;849;-26
2023/09/27 12:26:37;;;;;;;;;;;;;;;30.38;35.08;101023.97;5067940;28;1168;-25
2023/09/27 12:29:03;;;;;;;;;;;;;;;30.51;36.39;101006.94;5062470;28;1168;-25
2023/09/27 12:31:28;;;;;;;;;;;;;;;30.41;36.06;101012.72;5069224;28;1299;-26
2023/09/27 12:33:54;;;;;;;;;;;;;;;30.50;36.08;100996.28;5068402;28;1314;-26
2023/09/27 12:36:19;;;;;;;;;;;;;;;30.49;36.41;101011.75;5070974;28;1295;-25
2023/09/27 12:38:45;;;;;;;;;;;;;;;30.63;36.15;101007.22;5065931;28;2067;-27
2023/09/27 12:41:10;;;;;;;;;;;;;;;30.70;36.46;101006.44;5072579;28;1333;-26
2023/09/27 12:43:36;;;;;;;;;;;;;;;30.69;36.78;100997.44;5072686;28;1336;-25